Meteo Giornale » Osservazioni meteo Russia » Orenburg-Tsentralny
ore: 14:00 - Osservazioni Meteo Orenburg-Tsentralny
Lat. 51° 46' N Lon. 55° 7' E Alt. 109 metri s.l.m.
25 °C
Nuvoloso
Temp. 24 Ore
10 °C
25 °C
Ovest
21.6 Km/h
Dew point 3 °C
Umidità 23 %
Visibilità 10 Km
Il sole sorge alle ore 06:31
Il sole tramonta alle ore 20:07
| Data e Ora | Cielo e Fenomeni | T °C | DP °C | Um. % | Pres. hPa | Vis. km | Vento km/h | |
|---|---|---|---|---|---|---|---|---|
| Oggi h: 14:00 | Nuvoloso | 25 | 3 | 23 | 1021 | 10 | O 21.6 | |
| Oggi h: 13:30 | Sereno | 25 | 2 | 22 | 1021 | 10 | O 18 | |
| Oggi h: 13:00 | Sereno | 23 | 3 | 26 | 1021 | 10 | O/SO 10.8 | |
| Oggi h: 12:30 | Sereno | 23 | 3 | 26 | 1021 | 10 | N 10.8 | |
| Oggi h: 12:00 | Sereno | 20 | 3 | 32 | 1022 | 10 | N 7.2 | |
| Oggi h: 11:30 | Sereno | 19 | 4 | 37 | 1022 | 10 | N 7.2 | |
| Oggi h: 11:00 | Sereno | 18 | 4 | 39 | 1022 | 10 | N 7.2 | |
| Oggi h: 10:30 | Sereno | 17 | 5 | 45 | 1022 | 10 | N 3.6 | |
| Oggi h: 10:00 | Sereno | 16 | 4 | 44 | 1022 | 10 | N 7.2 | |
| Oggi h: 09:30 | Sereno | 15 | 4 | 47 | 1022 | 10 | N 7.2 | |
| Oggi h: 09:28 | Sereno | 15 | 4 | 47 | 1022 | 10 | N 7.2 | |
| Oggi h: 09:00 | Sereno | 13 | 5 | 58 | 1022 | 10 | N 3.6 | |
| Oggi h: 08:30 | Sereno | 12 | 5 | 62 | 1022 | 10 | N 0 | |
| Oggi h: 08:00 | Nuvoloso | 11 | 6 | 71 | 1022 | 10 | N 0 | |
| Oggi h: 07:30 | Nuvoloso | 11 | 7 | 76 | 1022 | 10 | N 3.6 | |
| Oggi h: 07:00 | Nuvoloso | 10 | 6 | 76 | 1022 | 10 | N 3.6 | |
| Oggi h: 06:30 | Nuvoloso | 10 | 6 | 76 | 1021 | 10 | N 0 | |
| Oggi h: 06:00 | Nuvoloso | 10 | 5 | 71 | 1021 | 10 | N 3.6 | |
| Oggi h: 05:30 | Sereno | 11 | 5 | 66 | 1021 | 10 | N 3.6 | |
| Oggi h: 05:00 | Sereno | 10 | 6 | 76 | 1021 | 10 | N 0 | |
| Oggi h: 04:30 | Sereno | 11 | 6 | 71 | 1021 | 10 | N 3.6 | |
| Oggi h: 04:00 | Sereno | 11 | 6 | 71 | 1021 | 10 | N 3.6 | |
| Oggi h: 03:30 | Sereno | 11 | 6 | 71 | 1021 | 10 | N 3.6 | |
| Oggi h: 03:00 | Sereno | 12 | 6 | 66 | 1021 | 10 | N 0 | |
| Oggi h: 02:30 | Sereno | 12 | 6 | 66 | 1021 | 10 | N 7.2 | |
| Oggi h: 02:00 | Sereno | 11 | 6 | 71 | 1021 | 10 | N 7.2 | |
| Oggi h: 01:30 | Sereno | 10 | 6 | 76 | 1021 | 10 | N 0 | |
| Oggi h: 01:00 | Nuvoloso | 11 | 6 | 71 | 1021 | 10 | N 7.2 | |
| Oggi h: 00:30 | Nuvoloso | 12 | 6 | 66 | 1021 | 10 | O/SO 10.8 | |
| Oggi h: 00:00 | Sereno | 12 | 6 | 66 | 1021 | 10 | N 7.2 | |
| Ieri h: 23:30 | Sereno | 12 | 6 | 66 | 1021 | 10 | O 14.4 | |
| Ieri h: 23:00 | Sereno | 12 | 5 | 62 | 1021 | 10 | O 10.8 | |
| Ieri h: 22:52 | Sereno | 13 | 5 | 58 | 1021 | 10 | O 10.8 | |
| Ieri h: 22:30 | Sereno | 11 | 4 | 61 | 1021 | 10 | O 10.8 | |
| Ieri h: 22:00 | Sereno | 11 | 4 | 61 | 1021 | 10 | O 10.8 | |
| Ieri h: 21:30 | Sereno | 11 | 4 | 61 | 1021 | 10 | N 7.2 | |
| Ieri h: 21:00 | Sereno | 13 | 4 | 54 | 1021 | 10 | N 7.2 | |
| Ieri h: 20:30 | Sereno | 14 | 4 | 50 | 1020 | 10 | O 10.8 | |
| Ieri h: 20:00 | Sereno | 17 | 4 | 41 | 1020 | 10 | O 10.8 | |
| Ieri h: 19:30 | Poco Nuvoloso | 20 | 4 | 34 | 1020 | 10 | O 18 | |
| Ieri h: 19:00 | Nuvoloso | 21 | 4 | 32 | 1020 | 10 | O/NO 21.6 | |
| Ieri h: 18:30 | Nuvoloso | 21 | 4 | 32 | 1020 | 10 | O/NO 21.6 | |
| Ieri h: 18:00 | Nuvoloso | 22 | 3 | 28 | 1020 | 10 | O/NO 21.6 | |
| Ieri h: 17:30 | Nuvoloso | 22 | 3 | 28 | 1021 | 10 | O/NO 25.2 | |
| Ieri h: 17:00 | Nuvoloso | 22 | 2 | 26 | 1021 | 10 | O/NO 21.6 | |
| Ieri h: 16:30 | Nuvoloso | 22 | 3 | 28 | 1021 | 10 | O/NO 25.2 | |
| Ieri h: 16:00 | Nuvoloso | 21 | 2 | 28 | 1021 | 10 | O 21.6 | |
| Ieri h: 15:30 | Nuvoloso | 22 | 2 | 26 | 1021 | 10 | O/NO 21.6 | |
| Ieri h: 15:00 | Nuvoloso | 20 | 2 | 30 | 1021 | 10 | O 18 | |



